sensor_id;sensor_type;location;lat;lon;timestamp;pressure;altitude;pressure_sealevel;temperature;humidity
74615;BME280;63121;51.458;-0.110;2023-02-26T00:01:16;102085.69;;;5.56;66.13
74615;BME280;63121;51.458;-0.110;2023-02-26T00:03:42;102085.03;;;5.61;65.73
74615;BME280;63121;51.458;-0.110;2023-02-26T00:06:08;102089.91;;;5.54;66.20
74615;BME280;63121;51.458;-0.110;2023-02-26T00:08:33;102082.53;;;5.37;67.03
74615;BME280;63121;51.458;-0.110;2023-02-26T00:10:59;102079.25;;;5.68;65.79
74615;BME280;63121;51.458;-0.110;2023-02-26T00:13:28;102088.53;;;5.65;65.45
74615;BME280;63121;51.458;-0.110;2023-02-26T00:15:58;102096.25;;;5.38;66.66
74615;BME280;63121;51.458;-0.110;2023-02-26T00:18:24;102090.00;;;5.29;67.07
74615;BME280;63121;51.458;-0.110;2023-02-26T00:20:50;102094.06;;;5.24;66.83
74615;BME280;63121;51.458;-0.110;2023-02-26T00:23:16;102102.63;;;5.78;65.32
74615;BME280;63121;51.458;-0.110;2023-02-26T00:25:43;102099.69;;;5.67;65.61
74615;BME280;63121;51.458;-0.110;2023-02-26T00:28:09;102098.84;;;5.66;65.16
74615;BME280;63121;51.458;-0.110;2023-02-26T00:30:35;102098.78;;;5.65;65.70
74615;BME280;63121;51.458;-0.110;2023-02-26T00:33:01;102104.47;;;5.29;66.71
74615;BME280;63121;51.458;-0.110;2023-02-26T00:35:27;102108.75;;;5.56;65.88
74615;BME280;63121;51.458;-0.110;2023-02-26T00:43:14;102102.34;;;5.43;66.30
74615;BME280;63121;51.458;-0.110;2023-02-26T00:45:46;102109.00;;;5.90;64.62
74615;BME280;63121;51.458;-0.110;2023-02-26T00:56:41;102089.75;;;5.76;64.66
74615;BME280;63121;51.458;-0.110;2023-02-26T00:59:07;102096.53;;;5.74;64.78
74615;BME280;63121;51.458;-0.110;2023-02-26T01:01:32;102091.25;;;5.69;64.36
74615;BME280;63121;51.458;-0.110;2023-02-26T01:03:57;102101.69;;;5.76;63.99
74615;BME280;63121;51.458;-0.110;2023-02-26T01:06:26;102106.38;;;5.62;64.93
74615;BME280;63121;51.458;-0.110;2023-02-26T01:09:14;102103.75;;;5.33;65.26
74615;BME280;63121;51.458;-0.110;2023-02-26T01:11:40;102101.03;;;5.28;65.49
74615;BME280;63121;51.458;-0.110;2023-02-26T01:14:06;102109.41;;;5.50;64.63
74615;BME280;63121;51.458;-0.110;2023-02-26T01:16:39;102112.16;;;5.56;64.08
74615;BME280;63121;51.458;-0.110;2023-02-26T01:22:00;102108.00;;;5.07;65.01
74615;BME280;63121;51.458;-0.110;2023-02-26T01:24:29;102114.56;;;5.24;64.84
74615;BME280;63121;51.458;-0.110;2023-02-26T01:26:55;102111.69;;;5.41;64.47
74615;BME280;63121;51.458;-0.110;2023-02-26T01:29:21;102120.28;;;5.43;64.14
74615;BME280;63121;51.458;-0.110;2023-02-26T01:35:03;102114.53;;;5.23;65.28
74615;BME280;63121;51.458;-0.110;2023-02-26T01:38:00;102115.63;;;5.31;64.88
74615;BME280;63121;51.458;-0.110;2023-02-26T01:43:19;102116.03;;;5.18;65.81
74615;BME280;63121;51.458;-0.110;2023-02-26T01:48:25;102116.16;;;5.21;65.71
74615;BME280;63121;51.458;-0.110;2023-02-26T01:50:54;102122.84;;;4.92;66.96
74615;BME280;63121;51.458;-0.110;2023-02-26T01:53:21;102123.84;;;5.21;65.76
74615;BME280;63121;51.458;-0.110;2023-02-26T01:55:51;102127.91;;;4.90;67.01
74615;BME280;63121;51.458;-0.110;2023-02-26T01:58:19;102122.50;;;5.06;66.61
74615;BME280;63121;51.458;-0.110;2023-02-26T02:00:45;102119.78;;;5.02;66.61
74615;BME280;63121;51.458;-0.110;2023-02-26T02:03:11;102115.97;;;4.91;66.66
74615;BME280;63121;51.458;-0.110;2023-02-26T02:05:43;102118.31;;;4.84;67.06
74615;BME280;63121;51.458;-0.110;2023-02-26T02:08:11;102118.81;;;4.98;66.18
74615;BME280;63121;51.458;-0.110;2023-02-26T02:10:40;102121.16;;;5.18;65.82
74615;BME280;63121;51.458;-0.110;2023-02-26T02:29:37;102138.34;;;4.96;66.24
74615;BME280;63121;51.458;-0.110;2023-02-26T02:32:09;102132.09;;;4.88;67.17
74615;BME280;63121;51.458;-0.110;2023-02-26T02:34:40;102135.78;;;4.72;67.24
74615;BME280;63121;51.458;-0.110;2023-02-26T02:37:20;102132.41;;;4.73;67.59
74615;BME280;63121;51.458;-0.110;2023-02-26T02:39:52;102137.63;;;5.00;67.01
74615;BME280;63121;51.458;-0.110;2023-02-26T02:42:43;102147.84;;;4.52;68.71
74615;BME280;63121;51.458;-0.110;2023-02-26T02:45:35;102148.09;;;4.82;67.94
74615;BME280;63121;51.458;-0.110;2023-02-26T02:48:09;102153.19;;;4.82;67.44
74615;BME280;63121;51.458;-0.110;2023-02-26T02:50:40;102155.59;;;4.78;67.75
74615;BME280;63121;51.458;-0.110;2023-02-26T02:53:19;102152.25;;;4.79;67.54
74615;BME280;63121;51.458;-0.110;2023-02-26T02:55:58;102155.13;;;4.88;67.35
74615;BME280;63121;51.458;-0.110;2023-02-26T02:58:32;102156.03;;;4.90;67.28
74615;BME280;63121;51.458;-0.110;2023-02-26T03:01:03;102157.31;;;5.27;66.42
74615;BME280;63121;51.458;-0.110;2023-02-26T03:03:37;102159.78;;;4.76;67.93
74615;BME280;63121;51.458;-0.110;2023-02-26T03:06:04;102157.59;;;4.85;66.95
74615;BME280;63121;51.458;-0.110;2023-02-26T03:08:35;102160.19;;;5.11;66.96
74615;BME280;63121;51.458;-0.110;2023-02-26T03:11:01;102155.47;;;5.23;66.12
74615;BME280;63121;51.458;-0.110;2023-02-26T03:13:27;102156.66;;;5.33;65.82
74615;BME280;63121;51.458;-0.110;2023-02-26T03:15:59;102169.59;;;5.63;65.17
74615;BME280;63121;51.458;-0.110;2023-02-26T03:21:33;102168.13;;;5.69;65.05
74615;BME280;63121;51.458;-0.110;2023-02-26T03:24:26;102157.19;;;5.49;65.17
74615;BME280;63121;51.458;-0.110;2023-02-26T03:26:58;102155.72;;;5.30;65.99
74615;BME280;63121;51.458;-0.110;2023-02-26T03:29:55;102160.66;;;5.77;64.04
74615;BME280;63121;51.458;-0.110;2023-02-26T03:32:41;102157.97;;;5.47;65.11
74615;BME280;63121;51.458;-0.110;2023-02-26T03:35:13;102161.19;;;5.41;65.18
74615;BME280;63121;51.458;-0.110;2023-02-26T03:37:44;102161.13;;;5.14;65.86
74615;BME280;63121;51.458;-0.110;2023-02-26T03:40:16;102163.66;;;5.64;64.99
74615;BME280;63121;51.458;-0.110;2023-02-26T03:42:47;102162.22;;;5.72;64.10
74615;BME280;63121;51.458;-0.110;2023-02-26T03:45:18;102165.28;;;5.62;64.35
74615;BME280;63121;51.458;-0.110;2023-02-26T03:47:49;102169.34;;;5.55;64.33
74615;BME280;63121;51.458;-0.110;2023-02-26T03:50:28;102164.97;;;5.27;65.56
74615;BME280;63121;51.458;-0.110;2023-02-26T03:52:57;102170.72;;;5.45;65.30
74615;BME280;63121;51.458;-0.110;2023-02-26T03:55:30;102178.13;;;5.36;65.60
74615;BME280;63121;51.458;-0.110;2023-02-26T03:57:58;102174.41;;;5.28;65.78
74615;BME280;63121;51.458;-0.110;2023-02-26T04:00:25;102178.75;;;5.55;64.52
74615;BME280;63121;51.458;-0.110;2023-02-26T04:03:24;102191.75;;;5.61;64.43
74615;BME280;63121;51.458;-0.110;2023-02-26T04:05:51;102182.50;;;5.66;64.43
74615;BME280;63121;51.458;-0.110;2023-02-26T04:08:20;102186.78;;;5.65;64.28
74615;BME280;63121;51.458;-0.110;2023-02-26T04:10:52;102190.69;;;5.81;64.07
74615;BME280;63121;51.458;-0.110;2023-02-26T04:13:19;102192.31;;;6.05;62.83
74615;BME280;63121;51.458;-0.110;2023-02-26T04:15:44;102191.44;;;6.04;62.87
74615;BME280;63121;51.458;-0.110;2023-02-26T04:18:09;102203.44;;;5.54;64.27
74615;BME280;63121;51.458;-0.110;2023-02-26T04:20:35;102205.50;;;6.16;62.58
74615;BME280;63121;51.458;-0.110;2023-02-26T04:23:00;102207.25;;;5.91;63.23
74615;BME280;63121;51.458;-0.110;2023-02-26T04:25:25;102207.69;;;5.78;64.09
74615;BME280;63121;51.458;-0.110;2023-02-26T04:27:51;102215.34;;;6.03;63.39
74615;BME280;63121;51.458;-0.110;2023-02-26T04:30:16;102217.16;;;5.82;64.12
74615;BME280;63121;51.458;-0.110;2023-02-26T04:32:42;102218.16;;;5.60;64.72
74615;BME280;63121;51.458;-0.110;2023-02-26T04:35:07;102209.84;;;5.93;63.84
74615;BME280;63121;51.458;-0.110;2023-02-26T04:37:33;102213.47;;;5.72;64.37
74615;BME280;63121;51.458;-0.110;2023-02-26T04:39:58;102216.50;;;5.87;64.35
74615;BME280;63121;51.458;-0.110;2023-02-26T04:42:23;102211.44;;;5.89;63.73
74615;BME280;63121;51.458;-0.110;2023-02-26T04:44:49;102217.03;;;5.77;64.27
74615;BME280;63121;51.458;-0.110;2023-02-26T04:47:14;102227.19;;;5.48;65.40
74615;BME280;63121;51.458;-0.110;2023-02-26T04:49:39;102221.56;;;5.86;64.56
74615;BME280;63121;51.458;-0.110;2023-02-26T04:52:05;102220.28;;;5.72;64.51
74615;BME280;63121;51.458;-0.110;2023-02-26T04:54:30;102231.59;;;5.53;65.14
74615;BME280;63121;51.458;-0.110;2023-02-26T04:56:55;102226.13;;;5.42;65.12
74615;BME280;63121;51.458;-0.110;2023-02-26T04:59:21;102222.84;;;5.22;65.52
74615;BME280;63121;51.458;-0.110;2023-02-26T05:01:46;102224.00;;;5.06;66.58
74615;BME280;63121;51.458;-0.110;2023-02-26T05:04:12;102217.78;;;4.99;66.22
74615;BME280;63121;51.458;-0.110;2023-02-26T05:06:37;102222.34;;;5.32;65.17
74615;BME280;63121;51.458;-0.110;2023-02-26T05:09:03;102227.66;;;5.13;65.42
74615;BME280;63121;51.458;-0.110;2023-02-26T05:11:28;102225.72;;;5.07;66.15
74615;BME280;63121;51.458;-0.110;2023-02-26T05:13:54;102226.81;;;5.14;65.81
74615;BME280;63121;51.458;-0.110;2023-02-26T05:16:19;102229.94;;;4.82;66.35
74615;BME280;63121;51.458;-0.110;2023-02-26T05:18:44;102231.81;;;4.86;66.13
74615;BME280;63121;51.458;-0.110;2023-02-26T05:21:10;102236.06;;;5.10;65.47
74615;BME280;63121;51.458;-0.110;2023-02-26T05:23:35;102252.66;;;4.97;65.63
74615;BME280;63121;51.458;-0.110;2023-02-26T05:26:01;102259.19;;;4.89;65.90
74615;BME280;63121;51.458;-0.110;2023-02-26T05:28:26;102260.63;;;4.81;66.57
74615;BME280;63121;51.458;-0.110;2023-02-26T05:30:52;102262.88;;;4.73;66.11
74615;BME280;63121;51.458;-0.110;2023-02-26T05:33:18;102262.41;;;4.83;66.22
74615;BME280;63121;51.458;-0.110;2023-02-26T05:35:44;102270.09;;;5.07;65.41
74615;BME280;63121;51.458;-0.110;2023-02-26T05:38:10;102265.75;;;5.05;65.31
74615;BME280;63121;51.458;-0.110;2023-02-26T05:40:35;102264.66;;;4.98;65.02
74615;BME280;63121;51.458;-0.110;2023-02-26T05:43:01;102274.97;;;5.00;64.92
74615;BME280;63121;51.458;-0.110;2023-02-26T05:45:26;102276.66;;;4.77;65.14
74615;BME280;63121;51.458;-0.110;2023-02-26T05:47:51;102280.25;;;4.82;65.49
74615;BME280;63121;51.458;-0.110;2023-02-26T05:50:17;102278.25;;;4.97;64.07
74615;BME280;63121;51.458;-0.110;2023-02-26T05:52:42;102277.47;;;4.76;64.20
74615;BME280;63121;51.458;-0.110;2023-02-26T05:55:09;102280.38;;;4.85;63.81
74615;BME280;63121;51.458;-0.110;2023-02-26T05:57:35;102282.34;;;4.92;63.37
74615;BME280;63121;51.458;-0.110;2023-02-26T06:00:00;102288.56;;;4.76;63.94
74615;BME280;63121;51.458;-0.110;2023-02-26T06:02:25;102301.84;;;4.66;64.61
74615;BME280;63121;51.458;-0.110;2023-02-26T06:04:51;102305.75;;;4.79;63.97
74615;BME280;63121;51.458;-0.110;2023-02-26T06:07:16;102306.50;;;4.55;64.43
74615;BME280;63121;51.458;-0.110;2023-02-26T06:09:41;102298.28;;;4.62;64.36
74615;BME280;63121;51.458;-0.110;2023-02-26T06:12:07;102306.03;;;4.64;64.47
74615;BME280;63121;51.458;-0.110;2023-02-26T06:14:33;102312.50;;;4.78;64.06
74615;BME280;63121;51.458;-0.110;2023-02-26T06:16:59;102306.94;;;4.66;64.23
74615;BME280;63121;51.458;-0.110;2023-02-26T06:19:24;102303.34;;;4.83;64.32
74615;BME280;63121;51.458;-0.110;2023-02-26T06:21:49;102301.66;;;4.84;63.85
74615;BME280;63121;51.458;-0.110;2023-02-26T06:24:15;102317.88;;;4.62;64.90
74615;BME280;63121;51.458;-0.110;2023-02-26T06:26:40;102322.00;;;4.58;64.98
74615;BME280;63121;51.458;-0.110;2023-02-26T06:29:05;102323.88;;;4.85;63.59
74615;BME280;63121;51.458;-0.110;2023-02-26T06:31:32;102331.09;;;4.73;64.45
74615;BME280;63121;51.458;-0.110;2023-02-26T06:33:57;102323.69;;;5.03;63.33
74615;BME280;63121;51.458;-0.110;2023-02-26T06:36:23;102324.22;;;5.17;62.69
74615;BME280;63121;51.458;-0.110;2023-02-26T06:38:48;102331.50;;;5.06;63.04
74615;BME280;63121;51.458;-0.110;2023-02-26T06:41:13;102332.53;;;5.11;63.01
74615;BME280;63121;51.458;-0.110;2023-02-26T06:43:39;102332.53;;;4.66;64.06
74615;BME280;63121;51.458;-0.110;2023-02-26T06:46:04;102339.44;;;4.91;63.09
74615;BME280;63121;51.458;-0.110;2023-02-26T06:48:30;102339.41;;;4.89;63.50
74615;BME280;63121;51.458;-0.110;2023-02-26T06:50:56;102341.28;;;4.50;63.53
74615;BME280;63121;51.458;-0.110;2023-02-26T06:53:21;102345.19;;;5.08;62.11
74615;BME280;63121;51.458;-0.110;2023-02-26T06:55:50;102343.63;;;4.89;62.73
74615;BME280;63121;51.458;-0.110;2023-02-26T06:58:16;102339.88;;;4.58;63.60
74615;BME280;63121;51.458;-0.110;2023-02-26T07:00:41;102349.59;;;4.67;63.21
74615;BME280;63121;51.458;-0.110;2023-02-26T07:03:17;102357.38;;;4.70;63.14
74615;BME280;63121;51.458;-0.110;2023-02-26T07:05:44;102362.19;;;4.83;62.38
74615;BME280;63121;51.458;-0.110;2023-02-26T07:08:10;102363.00;;;4.61;63.33
74615;BME280;63121;51.458;-0.110;2023-02-26T07:10:36;102365.47;;;5.02;61.96
74615;BME280;63121;51.458;-0.110;2023-02-26T07:13:02;102369.06;;;4.63;62.91
74615;BME280;63121;51.458;-0.110;2023-02-26T07:15:28;102379.38;;;4.65;62.94
74615;BME280;63121;51.458;-0.110;2023-02-26T07:17:54;102391.22;;;5.06;61.88
74615;BME280;63121;51.458;-0.110;2023-02-26T07:20:19;102388.09;;;5.14;61.89
74615;BME280;63121;51.458;-0.110;2023-02-26T07:22:45;102402.75;;;5.18;61.36
74615;BME280;63121;51.458;-0.110;2023-02-26T07:25:11;102403.97;;;5.27;61.09
74615;BME280;63121;51.458;-0.110;2023-02-26T07:27:37;102408.34;;;5.53;60.29
74615;BME280;63121;51.458;-0.110;2023-02-26T07:30:05;102419.63;;;5.35;61.17
74615;BME280;63121;51.458;-0.110;2023-02-26T07:32:31;102425.50;;;5.55;60.44
74615;BME280;63121;51.458;-0.110;2023-02-26T07:34:56;102415.81;;;5.48;60.67
74615;BME280;63121;51.458;-0.110;2023-02-26T07:37:22;102425.41;;;5.99;58.95
74615;BME280;63121;51.458;-0.110;2023-02-26T07:39:48;102421.34;;;5.14;60.63
74615;BME280;63121;51.458;-0.110;2023-02-26T07:42:13;102429.09;;;5.60;59.94
74615;BME280;63121;51.458;-0.110;2023-02-26T07:44:39;102430.38;;;5.26;60.70
74615;BME280;63121;51.458;-0.110;2023-02-26T07:47:04;102433.59;;;5.21;60.53
74615;BME280;63121;51.458;-0.110;2023-02-26T07:49:30;102445.81;;;5.50;60.02
74615;BME280;63121;51.458;-0.110;2023-02-26T07:51:56;102443.84;;;5.21;60.06
74615;BME280;63121;51.458;-0.110;2023-02-26T07:54:22;102441.34;;;5.45;60.01
74615;BME280;63121;51.458;-0.110;2023-02-26T07:56:47;102438.94;;;5.27;60.28
74615;BME280;63121;51.458;-0.110;2023-02-26T07:59:13;102439.16;;;5.56;60.00
74615;BME280;63121;51.458;-0.110;2023-02-26T08:01:38;102441.25;;;5.43;59.87
74615;BME280;63121;51.458;-0.110;2023-02-26T08:04:03;102443.66;;;5.39;59.94
74615;BME280;63121;51.458;-0.110;2023-02-26T08:06:29;102441.34;;;5.69;59.60
74615;BME280;63121;51.458;-0.110;2023-02-26T08:08:55;102448.84;;;5.87;58.46
74615;BME280;63121;51.458;-0.110;2023-02-26T08:11:20;102456.63;;;6.13;57.86
74615;BME280;63121;51.458;-0.110;2023-02-26T08:13:45;102450.44;;;6.56;57.10
74615;BME280;63121;51.458;-0.110;2023-02-26T08:16:11;102461.13;;;6.44;56.63
74615;BME280;63121;51.458;-0.110;2023-02-26T08:18:36;102458.34;;;6.63;56.56
74615;BME280;63121;51.458;-0.110;2023-02-26T08:21:02;102455.72;;;7.15;55.31
74615;BME280;63121;51.458;-0.110;2023-02-26T08:23:28;102463.66;;;7.22;54.80
74615;BME280;63121;51.458;-0.110;2023-02-26T08:26:00;102463.25;;;6.83;55.29
74615;BME280;63121;51.458;-0.110;2023-02-26T08:28:26;102464.91;;;7.35;54.55
74615;BME280;63121;51.458;-0.110;2023-02-26T08:30:52;102470.25;;;7.14;54.50
74615;BME280;63121;51.458;-0.110;2023-02-26T08:33:18;102466.91;;;7.17;54.50
74615;BME280;63121;51.458;-0.110;2023-02-26T08:35:43;102467.59;;;7.40;54.31
74615;BME280;63121;51.458;-0.110;2023-02-26T08:38:09;102475.69;;;7.52;53.69
74615;BME280;63121;51.458;-0.110;2023-02-26T08:40:34;102479.09;;;7.51;53.97
74615;BME280;63121;51.458;-0.110;2023-02-26T08:43:00;102481.50;;;7.18;54.58
74615;BME280;63121;51.458;-0.110;2023-02-26T08:45:25;102487.03;;;7.30;53.97
74615;BME280;63121;51.458;-0.110;2023-02-26T08:47:50;102485.66;;;7.41;53.70
74615;BME280;63121;51.458;-0.110;2023-02-26T08:50:18;102479.84;;;7.47;53.33
74615;BME280;63121;51.458;-0.110;2023-02-26T08:52:43;102497.56;;;7.39;53.96
74615;BME280;63121;51.458;-0.110;2023-02-26T08:55:09;102489.28;;;7.77;52.47
74615;BME280;63121;51.458;-0.110;2023-02-26T08:57:34;102488.00;;;7.92;52.56
74615;BME280;63121;51.458;-0.110;2023-02-26T09:00:00;102493.09;;;7.33;53.24
74615;BME280;63121;51.458;-0.110;2023-02-26T09:02:25;102503.28;;;7.86;52.14
74615;BME280;63121;51.458;-0.110;2023-02-26T09:04:50;102496.94;;;7.75;52.46
74615;BME280;63121;51.458;-0.110;2023-02-26T09:07:16;102509.03;;;7.50;52.91
74615;BME280;63121;51.458;-0.110;2023-02-26T09:09:41;102505.38;;;7.71;52.38
74615;BME280;63121;51.458;-0.110;2023-02-26T09:12:06;102509.84;;;7.77;51.64
74615;BME280;63121;51.458;-0.110;2023-02-26T09:14:32;102511.03;;;7.59;52.16
74615;BME280;63121;51.458;-0.110;2023-02-26T09:16:57;102518.47;;;7.79;51.18
74615;BME280;63121;51.458;-0.110;2023-02-26T09:19:23;102521.09;;;7.80;51.36
74615;BME280;63121;51.458;-0.110;2023-02-26T09:21:48;102524.94;;;8.26;50.17
74615;BME280;63121;51.458;-0.110;2023-02-26T09:24:13;102518.28;;;7.72;51.32
74615;BME280;63121;51.458;-0.110;2023-02-26T09:26:39;102522.91;;;8.45;50.08
74615;BME280;63121;51.458;-0.110;2023-02-26T09:29:04;102522.69;;;8.05;50.98
74615;BME280;63121;51.458;-0.110;2023-02-26T09:31:30;102523.56;;;8.69;49.70
74615;BME280;63121;51.458;-0.110;2023-02-26T09:33:56;102523.34;;;8.95;48.77
74615;BME280;63121;51.458;-0.110;2023-02-26T09:36:22;102531.78;;;8.89;48.62
74615;BME280;63121;51.458;-0.110;2023-02-26T09:38:47;102530.75;;;8.19;50.50
74615;BME280;63121;51.458;-0.110;2023-02-26T09:41:38;102533.75;;;8.98;48.48
74615;BME280;63121;51.458;-0.110;2023-02-26T09:47:01;102539.06;;;8.71;48.30
74615;BME280;63121;51.458;-0.110;2023-02-26T09:56:03;102548.72;;;8.81;47.20
74615;BME280;63121;51.458;-0.110;2023-02-26T09:58:32;102550.53;;;8.84;47.30
74615;BME280;63121;51.458;-0.110;2023-02-26T10:01:20;102556.16;;;8.69;47.61
74615;BME280;63121;51.458;-0.110;2023-02-26T10:12:21;102569.22;;;8.75;45.81
74615;BME280;63121;51.458;-0.110;2023-02-26T10:15:05;102567.34;;;9.04;45.13
74615;BME280;63121;51.458;-0.110;2023-02-26T10:22:57;102585.69;;;9.15;45.41
74615;BME280;63121;51.458;-0.110;2023-02-26T10:25:41;102590.44;;;9.34;45.25
74615;BME280;63121;51.458;-0.110;2023-02-26T10:30:41;102611.25;;;9.07;45.20
74615;BME280;63121;51.458;-0.110;2023-02-26T10:33:14;102604.75;;;8.88;45.33
74615;BME280;63121;51.458;-0.110;2023-02-26T10:35:53;102617.75;;;8.61;45.65
74615;BME280;63121;51.458;-0.110;2023-02-26T10:38:26;102615.56;;;8.75;45.86
74615;BME280;63121;51.458;-0.110;2023-02-26T10:41:04;102617.13;;;10.12;42.83
74615;BME280;63121;51.458;-0.110;2023-02-26T10:43:42;102617.59;;;9.94;42.80
74615;BME280;63121;51.458;-0.110;2023-02-26T10:51:37;102622.19;;;10.08;41.71
74615;BME280;63121;51.458;-0.110;2023-02-26T10:54:19;102618.63;;;10.42;41.35
74615;BME280;63121;51.458;-0.110;2023-02-26T10:56:46;102621.75;;;10.27;41.47
74615;BME280;63121;51.458;-0.110;2023-02-26T10:59:12;102617.69;;;10.83;39.87
74615;BME280;63121;51.458;-0.110;2023-02-26T11:01:37;102614.13;;;10.76;40.07
74615;BME280;63121;51.458;-0.110;2023-02-26T11:04:06;102617.56;;;10.32;38.08
74615;BME280;63121;51.458;-0.110;2023-02-26T11:06:56;102610.91;;;10.03;35.77
74615;BME280;63121;51.458;-0.110;2023-02-26T11:09:28;102616.91;;;9.64;37.04
74615;BME280;63121;51.458;-0.110;2023-02-26T11:12:04;102622.09;;;9.65;35.77
74615;BME280;63121;51.458;-0.110;2023-02-26T11:14:31;102616.41;;;9.79;37.10
74615;BME280;63121;51.458;-0.110;2023-02-26T11:17:01;102624.59;;;10.00;37.32
74615;BME280;63121;51.458;-0.110;2023-02-26T11:19:40;102636.53;;;10.34;36.58
74615;BME280;63121;51.458;-0.110;2023-02-26T11:22:07;102641.34;;;10.19;35.56
74615;BME280;63121;51.458;-0.110;2023-02-26T11:24:37;102639.44;;;10.10;35.66
74615;BME280;63121;51.458;-0.110;2023-02-26T11:27:10;102637.63;;;10.44;35.04
74615;BME280;63121;51.458;-0.110;2023-02-26T11:29:39;102636.19;;;10.60;35.12
74615;BME280;63121;51.458;-0.110;2023-02-26T11:32:09;102629.91;;;10.91;34.09
74615;BME280;63121;51.458;-0.110;2023-02-26T11:34:45;102639.47;;;10.50;34.81
74615;BME280;63121;51.458;-0.110;2023-02-26T11:37:12;102637.81;;;10.55;34.06
74615;BME280;63121;51.458;-0.110;2023-02-26T11:39:42;102639.81;;;10.68;33.84
74615;BME280;63121;51.458;-0.110;2023-02-26T11:42:09;102647.56;;;10.27;33.91
74615;BME280;63121;51.458;-0.110;2023-02-26T11:44:46;102642.19;;;10.57;34.16
74615;BME280;63121;51.458;-0.110;2023-02-26T11:47:22;102647.00;;;10.03;34.70
74615;BME280;63121;51.458;-0.110;2023-02-26T11:50:04;102659.28;;;10.13;34.57
74615;BME280;63121;51.458;-0.110;2023-02-26T11:52:40;102651.28;;;10.40;34.24
74615;BME280;63121;51.458;-0.110;2023-02-26T11:55:20;102660.91;;;10.08;34.75
74615;BME280;63121;51.458;-0.110;2023-02-26T11:57:50;102654.53;;;10.30;34.49
74615;BME280;63121;51.458;-0.110;2023-02-26T12:00:38;102660.69;;;10.36;34.08
74615;BME280;63121;51.458;-0.110;2023-02-26T12:03:15;102672.59;;;10.30;34.86
74615;BME280;63121;51.458;-0.110;2023-02-26T12:05:40;102673.81;;;10.46;34.19
74615;BME280;63121;51.458;-0.110;2023-02-26T12:08:17;102671.28;;;10.49;33.95
74615;BME280;63121;51.458;-0.110;2023-02-26T12:15:00;102671.16;;;10.87;33.54
74615;BME280;63121;51.458;-0.110;2023-02-26T12:22:56;102656.03;;;11.58;32.47
74615;BME280;63121;51.458;-0.110;2023-02-26T12:28:12;102674.69;;;11.39;32.19
74615;BME280;63121;51.458;-0.110;2023-02-26T12:39:04;102674.50;;;11.30;32.68
74615;BME280;63121;51.458;-0.110;2023-02-26T12:44:33;102676.16;;;10.77;33.80
74615;BME280;63121;51.458;-0.110;2023-02-26T12:47:30;102679.34;;;10.66;34.57
74615;BME280;63121;51.458;-0.110;2023-02-26T13:10:11;102731.50;;;8.78;50.15
74615;BME280;63121;51.458;-0.110;2023-02-26T13:21:01;102735.84;;;9.43;50.53
74615;BME280;63121;51.458;-0.110;2023-02-26T13:23:49;102731.78;;;8.89;50.89
74615;BME280;63121;51.458;-0.110;2023-02-26T13:26:16;102730.53;;;9.05;51.14
74615;BME280;63121;51.458;-0.110;2023-02-26T13:31:16;102733.97;;;9.37;49.03
74615;BME280;63121;51.458;-0.110;2023-02-26T13:33:44;102730.03;;;9.85;47.63
74615;BME280;63121;51.458;-0.110;2023-02-26T13:36:10;102721.88;;;10.04;47.03
74615;BME280;63121;51.458;-0.110;2023-02-26T13:41:51;102724.50;;;10.06;46.82
74615;BME280;63121;51.458;-0.110;2023-02-26T13:47:09;102720.78;;;10.70;44.79
74615;BME280;63121;51.458;-0.110;2023-02-26T13:52:28;102715.50;;;11.08;43.02
74615;BME280;63121;51.458;-0.110;2023-02-26T13:54:54;102705.28;;;11.14;42.10
74615;BME280;63121;51.458;-0.110;2023-02-26T13:57:32;102704.19;;;11.50;41.00
74615;BME280;63121;51.458;-0.110;2023-02-26T14:00:00;102705.31;;;11.66;40.39
74615;BME280;63121;51.458;-0.110;2023-02-26T14:02:34;102709.53;;;11.61;39.60
74615;BME280;63121;51.458;-0.110;2023-02-26T14:05:00;102698.59;;;11.77;39.32
74615;BME280;63121;51.458;-0.110;2023-02-26T14:07:47;102697.66;;;11.72;38.79
74615;BME280;63121;51.458;-0.110;2023-02-26T14:10:43;102706.03;;;10.65;40.76
74615;BME280;63121;51.458;-0.110;2023-02-26T14:13:16;102702.56;;;11.08;40.12
74615;BME280;63121;51.458;-0.110;2023-02-26T14:18:36;102695.28;;;11.33;39.79
74615;BME280;63121;51.458;-0.110;2023-02-26T14:23:55;102697.91;;;11.36;39.62
74615;BME280;63121;51.458;-0.110;2023-02-26T14:26:22;102699.53;;;10.85;41.00
74615;BME280;63121;51.458;-0.110;2023-02-26T14:29:06;102708.63;;;10.66;41.44
74615;BME280;63121;51.458;-0.110;2023-02-26T14:32:00;102717.25;;;10.65;41.11
74615;BME280;63121;51.458;-0.110;2023-02-26T14:34:31;102706.06;;;9.90;41.90
74615;BME280;63121;51.458;-0.110;2023-02-26T14:37:03;102717.13;;;10.21;41.21
74615;BME280;63121;51.458;-0.110;2023-02-26T14:40:33;102713.34;;;10.07;40.50
74615;BME280;63121;51.458;-0.110;2023-02-26T14:42:37;102713.19;;;10.01;39.97
74615;BME280;63121;51.458;-0.110;2023-02-26T14:47:30;102715.91;;;10.43;40.42
74615;BME280;63121;51.458;-0.110;2023-02-26T14:49:56;102708.69;;;10.68;39.30
74615;BME280;63121;51.458;-0.110;2023-02-26T15:05:50;102730.59;;;10.08;45.79
74615;BME280;63121;51.458;-0.110;2023-02-26T15:16:51;102738.28;;;10.06;46.31
74615;BME280;63121;51.458;-0.110;2023-02-26T15:19:40;102746.09;;;10.46;45.47
74615;BME280;63121;51.458;-0.110;2023-02-26T15:24:47;102743.06;;;10.27;45.29
74615;BME280;63121;51.458;-0.110;2023-02-26T15:27:18;102740.53;;;10.68;43.86
74615;BME280;63121;51.458;-0.110;2023-02-26T15:29:45;102747.59;;;11.19;43.01
74615;BME280;63121;51.458;-0.110;2023-02-26T15:32:26;102748.75;;;11.35;41.87
74615;BME280;63121;51.458;-0.110;2023-02-26T15:35:02;102748.72;;;10.90;41.00
74615;BME280;63121;51.458;-0.110;2023-02-26T15:37:29;102748.69;;;11.32;39.99
74615;BME280;63121;51.458;-0.110;2023-02-26T15:39:58;102747.53;;;11.16;39.36
74615;BME280;63121;51.458;-0.110;2023-02-26T15:42:36;102740.75;;;11.70;38.64
74615;BME280;63121;51.458;-0.110;2023-02-26T15:45:05;102740.19;;;11.88;35.62
74615;BME280;63121;51.458;-0.110;2023-02-26T15:47:34;102743.81;;;13.32;33.13
74615;BME280;63121;51.458;-0.110;2023-02-26T15:50:00;102747.34;;;12.05;34.11
74615;BME280;63121;51.458;-0.110;2023-02-26T15:52:26;102749.44;;;12.27;33.69